sensor_id;sensor_type;location;lat;lon;timestamp;pressure;altitude;pressure_sealevel;temperature;humidity
60976;BME280;46849;48.154;17.042;2022-09-17T00:01:51;98026.66;;;10.83;100.00
60976;BME280;46849;48.154;17.042;2022-09-17T00:04:36;98030.44;;;10.91;100.00
60976;BME280;46849;48.154;17.042;2022-09-17T00:07:21;98034.94;;;10.89;100.00
60976;BME280;46849;48.154;17.042;2022-09-17T00:10:06;98023.69;;;10.77;100.00
60976;BME280;46849;48.154;17.042;2022-09-17T00:12:50;98007.91;;;10.67;100.00
60976;BME280;46849;48.154;17.042;2022-09-17T00:15:40;98003.72;;;10.64;100.00
60976;BME280;46849;48.154;17.042;2022-09-17T00:18:24;98008.22;;;10.74;100.00
60976;BME280;46849;48.154;17.042;2022-09-17T00:21:16;98032.31;;;10.67;100.00
60976;BME280;46849;48.154;17.042;2022-09-17T00:24:03;98043.22;;;10.72;100.00
60976;BME280;46849;48.154;17.042;2022-09-17T00:26:48;98026.03;;;10.58;100.00
60976;BME280;46849;48.154;17.042;2022-09-17T00:29:33;98027.19;;;10.54;100.00
60976;BME280;46849;48.154;17.042;2022-09-17T00:32:17;98023.91;;;10.52;100.00
60976;BME280;46849;48.154;17.042;2022-09-17T00:35:02;98024.97;;;10.50;100.00
60976;BME280;46849;48.154;17.042;2022-09-17T00:37:47;98016.97;;;10.51;100.00
60976;BME280;46849;48.154;17.042;2022-09-17T00:40:32;98021.63;;;10.59;100.00
60976;BME280;46849;48.154;17.042;2022-09-17T00:43:40;98009.00;;;10.53;100.00
60976;BME280;46849;48.154;17.042;2022-09-17T00:46:37;97997.97;;;10.49;100.00
60976;BME280;46849;48.154;17.042;2022-09-17T00:49:28;98001.59;;;10.58;100.00
60976;BME280;46849;48.154;17.042;2022-09-17T00:52:19;98005.31;;;10.55;100.00
60976;BME280;46849;48.154;17.042;2022-09-17T00:55:15;98007.69;;;10.58;100.00
60976;BME280;46849;48.154;17.042;2022-09-17T00:58:03;98010.06;;;10.62;100.00
60976;BME280;46849;48.154;17.042;2022-09-17T01:00:49;98020.19;;;10.55;100.00
60976;BME280;46849;48.154;17.042;2022-09-17T01:03:33;98030.53;;;10.45;100.00
60976;BME280;46849;48.154;17.042;2022-09-17T01:09:27;98036.75;;;10.32;100.00
60976;BME280;46849;48.154;17.042;2022-09-17T01:12:35;98039.50;;;10.31;100.00
60976;BME280;46849;48.154;17.042;2022-09-17T01:15:50;98038.03;;;10.38;100.00
60976;BME280;46849;48.154;17.042;2022-09-17T01:24:48;98052.13;;;10.49;100.00
60976;BME280;46849;48.154;17.042;2022-09-17T01:31:01;98058.25;;;10.70;100.00
60976;BME280;46849;48.154;17.042;2022-09-17T01:33:58;98046.00;;;10.59;100.00
60976;BME280;46849;48.154;17.042;2022-09-17T01:39:41;98027.31;;;10.53;100.00
60976;BME280;46849;48.154;17.042;2022-09-17T01:42:42;98027.50;;;10.72;100.00
60976;BME280;46849;48.154;17.042;2022-09-17T01:48:32;98020.56;;;10.39;100.00
60976;BME280;46849;48.154;17.042;2022-09-17T01:51:21;98016.41;;;10.36;100.00
60976;BME280;46849;48.154;17.042;2022-09-17T01:57:06;98016.16;;;10.39;100.00
60976;BME280;46849;48.154;17.042;2022-09-17T02:00:03;98020.31;;;10.42;100.00
60976;BME280;46849;48.154;17.042;2022-09-17T02:02:59;98019.03;;;10.36;100.00
60976;BME280;46849;48.154;17.042;2022-09-17T02:05:51;98020.44;;;10.40;100.00
60976;BME280;46849;48.154;17.042;2022-09-17T02:08:45;98022.69;;;10.33;100.00
60976;BME280;46849;48.154;17.042;2022-09-17T02:11:38;98005.56;;;10.41;100.00
60976;BME280;46849;48.154;17.042;2022-09-17T02:14:28;97999.72;;;10.37;100.00
60976;BME280;46849;48.154;17.042;2022-09-17T02:17:34;97989.97;;;10.39;100.00
60976;BME280;46849;48.154;17.042;2022-09-17T02:20:28;97987.84;;;10.33;100.00
60976;BME280;46849;48.154;17.042;2022-09-17T02:23:20;97993.66;;;10.37;100.00
60976;BME280;46849;48.154;17.042;2022-09-17T02:26:11;97993.53;;;10.38;100.00
60976;BME280;46849;48.154;17.042;2022-09-17T02:29:04;97988.25;;;10.61;100.00
60976;BME280;46849;48.154;17.042;2022-09-17T02:31:50;97977.13;;;11.02;100.00
60976;BME280;46849;48.154;17.042;2022-09-17T02:34:35;97978.34;;;11.19;97.71
60976;BME280;46849;48.154;17.042;2022-09-17T02:37:19;97977.75;;;11.37;98.87
60976;BME280;46849;48.154;17.042;2022-09-17T02:40:04;97979.66;;;11.34;98.83
60976;BME280;46849;48.154;17.042;2022-09-17T02:48:53;97984.56;;;11.18;98.38
60976;BME280;46849;48.154;17.042;2022-09-17T02:52:05;97983.50;;;11.52;96.57
60976;BME280;46849;48.154;17.042;2022-09-17T02:55:18;97979.09;;;11.62;95.33
60976;BME280;46849;48.154;17.042;2022-09-17T03:01:05;97961.50;;;11.74;96.35
60976;BME280;46849;48.154;17.042;2022-09-17T03:03:52;97951.66;;;11.66;92.77
60976;BME280;46849;48.154;17.042;2022-09-17T03:06:40;97951.13;;;11.73;95.00
60976;BME280;46849;48.154;17.042;2022-09-17T03:09:25;97951.28;;;11.71;94.32
60976;BME280;46849;48.154;17.042;2022-09-17T03:12:10;97945.66;;;11.54;93.95
60976;BME280;46849;48.154;17.042;2022-09-17T03:14:58;97948.59;;;11.61;95.34
60976;BME280;46849;48.154;17.042;2022-09-17T03:17:42;97953.72;;;11.63;94.64
60976;BME280;46849;48.154;17.042;2022-09-17T03:20:27;97963.59;;;11.49;93.24
60976;BME280;46849;48.154;17.042;2022-09-17T03:23:12;97971.56;;;11.69;95.64
60976;BME280;46849;48.154;17.042;2022-09-17T03:25:56;97974.91;;;11.50;95.66
60976;BME280;46849;48.154;17.042;2022-09-17T03:28:41;97974.00;;;11.61;94.38
60976;BME280;46849;48.154;17.042;2022-09-17T03:31:25;97973.66;;;11.44;94.59
60976;BME280;46849;48.154;17.042;2022-09-17T03:34:10;97968.00;;;11.17;95.36
60976;BME280;46849;48.154;17.042;2022-09-17T03:36:54;97964.47;;;11.28;97.08
60976;BME280;46849;48.154;17.042;2022-09-17T03:39:39;97961.75;;;11.40;95.35
60976;BME280;46849;48.154;17.042;2022-09-17T03:42:23;97953.63;;;11.74;95.50
60976;BME280;46849;48.154;17.042;2022-09-17T03:45:08;97960.38;;;11.77;93.32
60976;BME280;46849;48.154;17.042;2022-09-17T03:47:54;97958.59;;;11.77;91.30
60976;BME280;46849;48.154;17.042;2022-09-17T03:50:39;97943.63;;;11.58;93.39
60976;BME280;46849;48.154;17.042;2022-09-17T03:53:23;97945.63;;;11.76;92.55
60976;BME280;46849;48.154;17.042;2022-09-17T03:56:08;97935.34;;;12.04;92.71
60976;BME280;46849;48.154;17.042;2022-09-17T03:58:56;97920.44;;;12.14;90.25
60976;BME280;46849;48.154;17.042;2022-09-17T04:01:41;97917.00;;;12.14;90.78
60976;BME280;46849;48.154;17.042;2022-09-17T04:04:26;97929.06;;;12.36;90.94
60976;BME280;46849;48.154;17.042;2022-09-17T04:07:11;97922.81;;;12.47;91.19
60976;BME280;46849;48.154;17.042;2022-09-17T04:09:55;97926.16;;;12.59;90.80
60976;BME280;46849;48.154;17.042;2022-09-17T04:12:39;97930.44;;;12.60;89.80
60976;BME280;46849;48.154;17.042;2022-09-17T04:15:24;97917.72;;;12.55;90.33
60976;BME280;46849;48.154;17.042;2022-09-17T04:18:09;97913.44;;;12.64;91.73
60976;BME280;46849;48.154;17.042;2022-09-17T04:20:53;97925.16;;;12.70;90.59
60976;BME280;46849;48.154;17.042;2022-09-17T04:23:38;97914.09;;;12.76;90.67
60976;BME280;46849;48.154;17.042;2022-09-17T04:26:22;97922.53;;;12.70;90.17
60976;BME280;46849;48.154;17.042;2022-09-17T04:29:07;97939.00;;;12.72;91.13
60976;BME280;46849;48.154;17.042;2022-09-17T04:31:53;97946.75;;;12.74;91.33
60976;BME280;46849;48.154;17.042;2022-09-17T04:34:38;97955.19;;;12.77;90.92
60976;BME280;46849;48.154;17.042;2022-09-17T04:37:23;97967.78;;;12.93;89.46
60976;BME280;46849;48.154;17.042;2022-09-17T04:40:09;97972.03;;;13.04;88.59
60976;BME280;46849;48.154;17.042;2022-09-17T04:42:54;97981.75;;;12.94;87.63
60976;BME280;46849;48.154;17.042;2022-09-17T04:45:39;97977.03;;;12.88;89.21
60976;BME280;46849;48.154;17.042;2022-09-17T04:48:24;97972.75;;;12.97;90.12
60976;BME280;46849;48.154;17.042;2022-09-17T04:51:08;97964.72;;;12.78;88.52
60976;BME280;46849;48.154;17.042;2022-09-17T04:53:53;97954.19;;;12.19;90.86
60976;BME280;46849;48.154;17.042;2022-09-17T04:56:38;97936.19;;;11.63;91.91
60976;BME280;46849;48.154;17.042;2022-09-17T04:59:22;97921.25;;;11.64;92.77
60976;BME280;46849;48.154;17.042;2022-09-17T05:02:07;97922.63;;;11.58;94.07
60976;BME280;46849;48.154;17.042;2022-09-17T05:04:52;97936.97;;;11.23;95.41
60976;BME280;46849;48.154;17.042;2022-09-17T05:07:38;97934.78;;;11.28;94.74
60976;BME280;46849;48.154;17.042;2022-09-17T05:10:23;97927.09;;;11.05;96.52
60976;BME280;46849;48.154;17.042;2022-09-17T05:13:07;97913.22;;;10.71;98.51
60976;BME280;46849;48.154;17.042;2022-09-17T05:15:53;97897.44;;;10.83;98.48
60976;BME280;46849;48.154;17.042;2022-09-17T05:18:40;97882.91;;;10.79;98.36
60976;BME280;46849;48.154;17.042;2022-09-17T05:21:24;97884.38;;;10.93;96.19
60976;BME280;46849;48.154;17.042;2022-09-17T05:24:09;97899.06;;;11.05;96.36
60976;BME280;46849;48.154;17.042;2022-09-17T05:26:54;97921.19;;;11.13;94.09
60976;BME280;46849;48.154;17.042;2022-09-17T05:29:38;97925.25;;;11.27;94.48
60976;BME280;46849;48.154;17.042;2022-09-17T05:32:23;97910.00;;;11.42;91.50
60976;BME280;46849;48.154;17.042;2022-09-17T05:35:08;97900.22;;;11.13;93.21
60976;BME280;46849;48.154;17.042;2022-09-17T05:38:02;97904.56;;;11.02;93.05
60976;BME280;46849;48.154;17.042;2022-09-17T05:40:47;97923.63;;;10.83;94.35
60976;BME280;46849;48.154;17.042;2022-09-17T05:43:34;97949.84;;;10.83;95.06
60976;BME280;46849;48.154;17.042;2022-09-17T05:46:44;97971.53;;;11.06;95.20
60976;BME280;46849;48.154;17.042;2022-09-17T05:49:32;97960.44;;;11.03;96.95
60976;BME280;46849;48.154;17.042;2022-09-17T05:52:16;97955.06;;;10.83;95.75
60976;BME280;46849;48.154;17.042;2022-09-17T05:55:01;97952.50;;;10.71;96.20
60976;BME280;46849;48.154;17.042;2022-09-17T05:57:45;97969.63;;;10.76;97.61
60976;BME280;46849;48.154;17.042;2022-09-17T06:00:33;97970.34;;;10.78;97.13
60976;BME280;46849;48.154;17.042;2022-09-17T06:03:19;97987.44;;;10.93;98.55
60976;BME280;46849;48.154;17.042;2022-09-17T06:06:04;97980.72;;;11.01;96.62
60976;BME280;46849;48.154;17.042;2022-09-17T06:08:49;97998.25;;;10.89;98.38
60976;BME280;46849;48.154;17.042;2022-09-17T06:11:38;98001.06;;;10.76;98.08
60976;BME280;46849;48.154;17.042;2022-09-17T06:14:22;98006.03;;;10.79;100.00
60976;BME280;46849;48.154;17.042;2022-09-17T06:17:07;97992.66;;;11.36;100.00
60976;BME280;46849;48.154;17.042;2022-09-17T06:19:51;97979.25;;;12.53;94.66
60976;BME280;46849;48.154;17.042;2022-09-17T06:22:36;97965.28;;;12.52;92.02
60976;BME280;46849;48.154;17.042;2022-09-17T06:25:22;97962.81;;;12.61;91.28
60976;BME280;46849;48.154;17.042;2022-09-17T06:28:07;97952.56;;;12.87;88.52
60976;BME280;46849;48.154;17.042;2022-09-17T06:30:52;97939.69;;;12.94;89.03
60976;BME280;46849;48.154;17.042;2022-09-17T06:33:39;97943.03;;;12.66;87.97
60976;BME280;46849;48.154;17.042;2022-09-17T06:36:26;97941.78;;;12.51;88.64
60976;BME280;46849;48.154;17.042;2022-09-17T06:39:11;97945.25;;;12.61;88.43
60976;BME280;46849;48.154;17.042;2022-09-17T06:41:56;97948.16;;;12.58;89.22
60976;BME280;46849;48.154;17.042;2022-09-17T06:44:40;97961.81;;;12.72;90.89
60976;BME280;46849;48.154;17.042;2022-09-17T06:47:25;97961.00;;;12.41;90.41
60976;BME280;46849;48.154;17.042;2022-09-17T06:50:09;97977.19;;;12.66;90.43
60976;BME280;46849;48.154;17.042;2022-09-17T06:52:54;97984.50;;;12.63;90.46
60976;BME280;46849;48.154;17.042;2022-09-17T06:55:39;97991.34;;;13.43;87.15
60976;BME280;46849;48.154;17.042;2022-09-17T06:58:25;98002.06;;;13.22;85.24
60976;BME280;46849;48.154;17.042;2022-09-17T07:01:11;98000.00;;;13.05;87.08
60976;BME280;46849;48.154;17.042;2022-09-17T07:03:56;97997.44;;;13.34;84.87
60976;BME280;46849;48.154;17.042;2022-09-17T07:06:42;97992.41;;;12.63;88.07
60976;BME280;46849;48.154;17.042;2022-09-17T07:09:26;97985.44;;;12.22;89.05
60976;BME280;46849;48.154;17.042;2022-09-17T07:12:11;97983.09;;;12.39;91.23
60976;BME280;46849;48.154;17.042;2022-09-17T07:14:57;97978.63;;;12.19;91.05
60976;BME280;46849;48.154;17.042;2022-09-17T07:17:42;97983.50;;;12.34;92.58
60976;BME280;46849;48.154;17.042;2022-09-17T07:20:28;97960.16;;;12.80;87.38
60976;BME280;46849;48.154;17.042;2022-09-17T07:23:12;97968.28;;;12.28;88.97
60976;BME280;46849;48.154;17.042;2022-09-17T07:26:02;97988.22;;;11.89;89.47
60976;BME280;46849;48.154;17.042;2022-09-17T07:28:47;97994.38;;;12.10;90.29
60976;BME280;46849;48.154;17.042;2022-09-17T07:31:32;97993.16;;;12.14;88.59
60976;BME280;46849;48.154;17.042;2022-09-17T07:34:16;98003.38;;;13.46;81.88
60976;BME280;46849;48.154;17.042;2022-09-17T07:37:01;98017.25;;;13.38;84.64
60976;BME280;46849;48.154;17.042;2022-09-17T07:39:46;98032.34;;;13.16;82.76
60976;BME280;46849;48.154;17.042;2022-09-17T07:42:30;98031.84;;;12.92;84.82
60976;BME280;46849;48.154;17.042;2022-09-17T07:45:16;98013.19;;;12.15;88.29
60976;BME280;46849;48.154;17.042;2022-09-17T07:48:00;98012.78;;;12.19;87.25
60976;BME280;46849;48.154;17.042;2022-09-17T07:50:45;98016.78;;;11.82;92.24
60976;BME280;46849;48.154;17.042;2022-09-17T07:53:30;98019.41;;;12.14;88.88
60976;BME280;46849;48.154;17.042;2022-09-17T07:56:14;98001.97;;;12.13;87.85
60976;BME280;46849;48.154;17.042;2022-09-17T07:59:01;98004.13;;;12.29;87.69
60976;BME280;46849;48.154;17.042;2022-09-17T08:01:45;98014.59;;;12.39;89.18
60976;BME280;46849;48.154;17.042;2022-09-17T08:04:30;98031.94;;;13.21;87.46
60976;BME280;46849;48.154;17.042;2022-09-17T08:07:15;98029.72;;;12.76;86.36
60976;BME280;46849;48.154;17.042;2022-09-17T08:09:59;98027.91;;;12.57;87.16
60976;BME280;46849;48.154;17.042;2022-09-17T08:12:45;98021.72;;;12.98;88.53
60976;BME280;46849;48.154;17.042;2022-09-17T08:15:30;98005.91;;;12.38;88.47
60976;BME280;46849;48.154;17.042;2022-09-17T08:18:15;98019.47;;;12.63;88.45
60976;BME280;46849;48.154;17.042;2022-09-17T08:21:02;98032.94;;;12.90;87.48
60976;BME280;46849;48.154;17.042;2022-09-17T08:23:47;98032.47;;;12.35;89.77
60976;BME280;46849;48.154;17.042;2022-09-17T08:26:32;98022.25;;;12.01;89.17
60976;BME280;46849;48.154;17.042;2022-09-17T08:29:16;98040.53;;;11.81;90.65
60976;BME280;46849;48.154;17.042;2022-09-17T08:32:01;98039.72;;;11.90;90.73
60976;BME280;46849;48.154;17.042;2022-09-17T08:34:46;98036.56;;;11.65;88.23
60976;BME280;46849;48.154;17.042;2022-09-17T08:37:31;98048.72;;;11.88;86.25
60976;BME280;46849;48.154;17.042;2022-09-17T08:40:17;98038.00;;;11.27;87.06
60976;BME280;46849;48.154;17.042;2022-09-17T08:43:04;98044.03;;;11.39;86.51
60976;BME280;46849;48.154;17.042;2022-09-17T08:45:56;98043.75;;;11.20;85.91
60976;BME280;46849;48.154;17.042;2022-09-17T08:49:12;98034.56;;;11.05;85.68
60976;BME280;46849;48.154;17.042;2022-09-17T09:05:01;98008.06;;;10.87;83.78
60976;BME280;46849;48.154;17.042;2022-09-17T09:07:50;98011.38;;;11.10;82.22
60976;BME280;46849;48.154;17.042;2022-09-17T09:10:57;98012.03;;;11.02;82.33
60976;BME280;46849;48.154;17.042;2022-09-17T09:13:45;98002.06;;;11.39;83.25
60976;BME280;46849;48.154;17.042;2022-09-17T09:16:31;97983.13;;;10.92;81.14
60976;BME280;46849;48.154;17.042;2022-09-17T09:19:22;98000.72;;;11.02;82.06
60976;BME280;46849;48.154;17.042;2022-09-17T09:25:17;98027.38;;;11.50;81.02
60976;BME280;46849;48.154;17.042;2022-09-17T09:34:16;98054.75;;;12.61;80.74
60976;BME280;46849;48.154;17.042;2022-09-17T09:37:23;98056.72;;;12.88;74.80
60976;BME280;46849;48.154;17.042;2022-09-17T09:40:27;98057.31;;;12.00;75.25
60976;BME280;46849;48.154;17.042;2022-09-17T09:43:33;98055.22;;;12.25;76.61
60976;BME280;46849;48.154;17.042;2022-09-17T09:52:31;98041.91;;;11.85;75.89
60976;BME280;46849;48.154;17.042;2022-09-17T09:58:32;98041.34;;;12.74;73.45
60976;BME280;46849;48.154;17.042;2022-09-17T10:01:19;98017.06;;;13.69;67.10
60976;BME280;46849;48.154;17.042;2022-09-17T10:04:15;98007.75;;;12.87;70.26
60976;BME280;46849;48.154;17.042;2022-09-17T10:07:08;98002.72;;;13.14;75.38
60976;BME280;46849;48.154;17.042;2022-09-17T10:10:07;98006.91;;;12.57;73.19
60976;BME280;46849;48.154;17.042;2022-09-17T10:13:05;98001.03;;;12.14;74.45
60976;BME280;46849;48.154;17.042;2022-09-17T10:15:50;98009.59;;;12.26;73.64
60976;BME280;46849;48.154;17.042;2022-09-17T10:18:35;98017.66;;;12.44;74.43
60976;BME280;46849;48.154;17.042;2022-09-17T10:21:22;98013.63;;;11.89;70.42
60976;BME280;46849;48.154;17.042;2022-09-17T10:24:23;98017.66;;;12.03;71.86
60976;BME280;46849;48.154;17.042;2022-09-17T10:27:14;98014.03;;;12.15;71.58
60976;BME280;46849;48.154;17.042;2022-09-17T10:38:43;97995.84;;;12.73;67.71
60976;BME280;46849;48.154;17.042;2022-09-17T10:41:29;97988.66;;;12.95;68.63
60976;BME280;46849;48.154;17.042;2022-09-17T10:44:16;97980.34;;;12.50;67.19
60976;BME280;46849;48.154;17.042;2022-09-17T10:47:12;97976.22;;;12.87;66.34
60976;BME280;46849;48.154;17.042;2022-09-17T10:50:16;97995.72;;;12.45;67.84
60976;BME280;46849;48.154;17.042;2022-09-17T10:53:03;97994.91;;;12.94;66.13
60976;BME280;46849;48.154;17.042;2022-09-17T10:58:58;97972.66;;;13.46;64.36
60976;BME280;46849;48.154;17.042;2022-09-17T11:15:27;97947.16;;;12.89;65.18
60976;BME280;46849;48.154;17.042;2022-09-17T11:18:34;97957.66;;;12.99;65.24
60976;BME280;46849;48.154;17.042;2022-09-17T11:30:20;97969.53;;;13.03;66.18
60976;BME280;46849;48.154;17.042;2022-09-17T11:36:57;97976.50;;;12.94;65.51
60976;BME280;46849;48.154;17.042;2022-09-17T11:42:38;97993.63;;;13.08;64.60
60976;BME280;46849;48.154;17.042;2022-09-17T11:45:32;97976.88;;;12.89;64.68
60976;BME280;46849;48.154;17.042;2022-09-17T11:48:21;97975.66;;;12.54;65.93
60976;BME280;46849;48.154;17.042;2022-09-17T11:51:19;97973.03;;;12.74;65.66
60976;BME280;46849;48.154;17.042;2022-09-17T11:54:22;97974.00;;;12.43;66.62
60976;BME280;46849;48.154;17.042;2022-09-17T11:57:13;97955.50;;;13.32;65.53
60976;BME280;46849;48.154;17.042;2022-09-17T12:00:13;97940.19;;;13.17;64.22
60976;BME280;46849;48.154;17.042;2022-09-17T12:03:12;97937.31;;;13.59;64.18
60976;BME280;46849;48.154;17.042;2022-09-17T12:06:06;97936.56;;;13.28;66.29
60976;BME280;46849;48.154;17.042;2022-09-17T12:09:03;97943.94;;;13.63;63.53
60976;BME280;46849;48.154;17.042;2022-09-17T12:12:05;97944.50;;;13.95;62.59
60976;BME280;46849;48.154;17.042;2022-09-17T12:15:02;97954.25;;;13.36;64.58
60976;BME280;46849;48.154;17.042;2022-09-17T12:21:14;97945.59;;;13.16;63.69
60976;BME280;46849;48.154;17.042;2022-09-17T12:27:16;97947.59;;;12.84;64.62
60976;BME280;46849;48.154;17.042;2022-09-17T12:30:15;97935.28;;;13.42;63.80
60976;BME280;46849;48.154;17.042;2022-09-17T12:39:01;97956.03;;;13.55;61.37
60976;BME280;46849;48.154;17.042;2022-09-17T12:42:20;97937.50;;;12.69;64.05
60976;BME280;46849;48.154;17.042;2022-09-17T12:54:50;97873.22;;;14.69;62.67
60976;BME280;46849;48.154;17.042;2022-09-17T12:57:57;97868.34;;;15.79;60.78
60976;BME280;46849;48.154;17.042;2022-09-17T13:00:52;97866.31;;;13.39;66.52
60976;BME280;46849;48.154;17.042;2022-09-17T13:03:42;97864.34;;;13.13;69.60
60976;BME280;46849;48.154;17.042;2022-09-17T13:10:02;97893.25;;;12.35;73.37
60976;BME280;46849;48.154;17.042;2022-09-17T13:15:59;97911.22;;;12.69;73.55
60976;BME280;46849;48.154;17.042;2022-09-17T13:22:05;97935.41;;;12.83;74.16
60976;BME280;46849;48.154;17.042;2022-09-17T13:25:19;97913.91;;;13.08;72.90
60976;BME280;46849;48.154;17.042;2022-09-17T13:28:08;97915.91;;;12.36;74.31
60976;BME280;46849;48.154;17.042;2022-09-17T13:30:58;97915.63;;;12.19;76.54
60976;BME280;46849;48.154;17.042;2022-09-17T13:34:00;97903.88;;;12.14;75.11
60976;BME280;46849;48.154;17.042;2022-09-17T13:36:49;97914.06;;;12.07;75.91
60976;BME280;46849;48.154;17.042;2022-09-17T13:42:45;97907.41;;;12.03;76.17
60976;BME280;46849;48.154;17.042;2022-09-17T13:45:34;97917.09;;;11.92;76.86
60976;BME280;46849;48.154;17.042;2022-09-17T13:48:45;97923.25;;;11.72;78.37
60976;BME280;46849;48.154;17.042;2022-09-17T13:54:19;97923.53;;;11.78;77.56
60976;BME280;46849;48.154;17.042;2022-09-17T13:57:10;97947.00;;;11.70;78.67
60976;BME280;46849;48.154;17.042;2022-09-17T13:59:58;97959.03;;;11.82;78.04
60976;BME280;46849;48.154;17.042;2022-09-17T14:02:44;97957.22;;;11.73;78.12
60976;BME280;46849;48.154;17.042;2022-09-17T14:05:33;97961.31;;;11.66;79.14
60976;BME280;46849;48.154;17.042;2022-09-17T14:08:57;97970.13;;;11.55;78.89
60976;BME280;46849;48.154;17.042;2022-09-17T14:11:36;97966.22;;;11.49;79.99
60976;BME280;46849;48.154;17.042;2022-09-17T14:14:38;97946.81;;;11.30;79.46
60976;BME280;46849;48.154;17.042;2022-09-17T14:17:48;97937.72;;;11.13;80.71
60976;BME280;46849;48.154;17.042;2022-09-17T14:20:34;97918.09;;;11.29;80.52
60976;BME280;46849;48.154;17.042;2022-09-17T14:23:19;97926.75;;;11.19;81.17
60976;BME280;46849;48.154;17.042;2022-09-17T14:26:07;97928.28;;;11.22;81.05
60976;BME280;46849;48.154;17.042;2022-09-17T14:29:07;97926.84;;;11.08;82.78
60976;BME280;46849;48.154;17.042;2022-09-17T14:31:56;97925.16;;;11.07;82.57
60976;BME280;46849;48.154;17.042;2022-09-17T14:34:41;97937.72;;;11.13;82.13
60976;BME280;46849;48.154;17.042;2022-09-17T14:37:27;97927.13;;;11.15;81.88
60976;BME280;46849;48.154;17.042;2022-09-17T14:40:16;97920.78;;;11.39;81.12
60976;BME280;46849;48.154;17.042;2022-09-17T14:43:02;97921.25;;;11.23;82.04
60976;BME280;46849;48.154;17.042;2022-09-17T14:45:50;97923.75;;;11.24;82.51
60976;BME280;46849;48.154;17.042;2022-09-17T14:48:36;97923.16;;;11.20;82.85
60976;BME280;46849;48.154;17.042;2022-09-17T14:51:23;97910.31;;;11.17;83.52
60976;BME280;46849;48.154;17.042;2022-09-17T14:54:16;97909.69;;;11.04;84.25
60976;BME280;46849;48.154;17.042;2022-09-17T14:59:56;97899.84;;;10.96;82.93
60976;BME280;46849;48.154;17.042;2022-09-17T15:02:41;97895.59;;;10.95;82.68
60976;BME280;46849;48.154;17.042;2022-09-17T15:05:34;97899.16;;;10.94;83.32
60976;BME280;46849;48.154;17.042;2022-09-17T15:08:26;97901.44;;;10.87;83.29
60976;BME280;46849;48.154;17.042;2022-09-17T15:11:14;97901.91;;;10.92;84.09
60976;BME280;46849;48.154;17.042;2022-09-17T15:13:59;97903.88;;;11.00;83.88
60976;BME280;46849;48.154;17.042;2022-09-17T15:16:54;97902.03;;;10.91;84.98
60976;BME280;46849;48.154;17.042;2022-09-17T15:19:43;97904.72;;;11.01;85.08
60976;BME280;46849;48.154;17.042;2022-09-17T15:22:33;97900.50;;;10.88;85.98
60976;BME280;46849;48.154;17.042;2022-09-17T15:25:21;97901.09;;;10.70;87.76
60976;BME280;46849;48.154;17.042;2022-09-17T15:31:19;97902.47;;;10.53;89.84
60976;BME280;46849;48.154;17.042;2022-09-17T15:34:03;97894.94;;;10.60;89.45
60976;BME280;46849;48.154;17.042;2022-09-17T15:37:17;97897.56;;;10.60;89.92
60976;BME280;46849;48.154;17.042;2022-09-17T15:40:11;97895.13;;;10.47;90.01
60976;BME280;46849;48.154;17.042;2022-09-17T15:49:31;97894.94;;;10.60;87.34
60976;BME280;46849;48.154;17.042;2022-09-17T15:52:26;97898.41;;;10.61;87.67
60976;BME280;46849;48.154;17.042;2022-09-17T15:55:59;97885.91;;;10.74;86.64
60976;BME280;46849;48.154;17.042;2022-09-17T16:04:29;97888.41;;;10.97;85.67
60976;BME280;46849;48.154;17.042;2022-09-17T16:07:28;97887.00;;;10.93;85.26
60976;BME280;46849;48.154;17.042;2022-09-17T16:10:14;97886.19;;;10.92;85.63
60976;BME280;46849;48.154;17.042;2022-09-17T16:13:00;97883.56;;;11.24;85.34
60976;BME280;46849;48.154;17.042;2022-09-17T16:15:45;97884.38;;;10.93;85.70
60976;BME280;46849;48.154;17.042;2022-09-17T16:18:31;97881.72;;;10.83;86.04
60976;BME280;46849;48.154;17.042;2022-09-17T16:21:18;97873.66;;;10.96;86.17
60976;BME280;46849;48.154;17.042;2022-09-17T16:24:02;97881.84;;;10.81;86.38
60976;BME280;46849;48.154;17.042;2022-09-17T16:26:47;97875.69;;;10.92;86.56
60976;BME280;46849;48.154;17.042;2022-09-17T16:29:31;97881.06;;;10.91;85.85
60976;BME280;46849;48.154;17.042;2022-09-17T16:32:16;97876.22;;;10.86;86.11
60976;BME280;46849;48.154;17.042;2022-09-17T16:35:00;97881.19;;;10.89;86.07
60976;BME280;46849;48.154;17.042;2022-09-17T16:37:50;97886.69;;;10.86;85.94
60976;BME280;46849;48.154;17.042;2022-09-17T16:40:39;97881.31;;;10.88;85.71
60976;BME280;46849;48.154;17.042;2022-09-17T16:43:24;97876.47;;;10.83;85.63
60976;BME280;46849;48.154;17.042;2022-09-17T16:46:10;97878.91;;;10.75;85.61
60976;BME280;46849;48.154;17.042;2022-09-17T16:48:54;97878.72;;;10.66;85.99
60976;BME280;46849;48.154;17.042;2022-09-17T16:51:40;97873.41;;;10.78;85.92
60976;BME280;46849;48.154;17.042;2022-09-17T16:54:24;97877.50;;;10.70;85.28
60976;BME280;46849;48.154;17.042;2022-09-17T16:57:09;97876.53;;;10.71;85.02
60976;BME280;46849;48.154;17.042;2022-09-17T16:59:54;97859.19;;;10.70;84.71
60976;BME280;46849;48.154;17.042;2022-09-17T17:02:38;97872.63;;;10.66;84.94
60976;BME280;46849;48.154;17.042;2022-09-17T17:05:24;97874.69;;;10.62;85.34
60976;BME280;46849;48.154;17.042;2022-09-17T17:08:09;97870.53;;;10.59;84.94
60976;BME280;46849;48.154;17.042;2022-09-17T17:10:54;97873.13;;;10.59;84.98
60976;BME280;46849;48.154;17.042;2022-09-17T17:13:40;97869.44;;;10.62;84.54
60976;BME280;46849;48.154;17.042;2022-09-17T17:16:25;97870.41;;;10.61;84.74
60976;BME280;46849;48.154;17.042;2022-09-17T17:19:10;97869.72;;;10.59;84.23
60976;BME280;46849;48.154;17.042;2022-09-17T17:21:55;97872.50;;;10.46;84.76